Time;durP1;ratioP1;P1;durP2;ratioP2;P2;SDS_P1;SDS_P2;PMS_P1;PMS_P2;Temp;Humidity;BMP_temperature;BMP_pressure;BME280_temperature;BME280_humidity;BME280_pressure;Samples;Min_cycle;Max_cycle;Signal;HPM_P1;HPM_P2
2023/11/26 06:27:34;;;;;;;12.50;5.75;;;;;;;;;;7624002;19;20370;-70
2023/11/26 06:30:07;;;;;;;11.48;5.38;;;;;;;;;;7619295;19;21038;-69
2023/11/26 06:32:40;;;;;;;12.88;5.35;;;;;;;;;;7617139;19;20018;-72
2023/11/26 06:35:13;;;;;;;14.07;5.03;;;;;;;;;;7625389;19;20036;-71
2023/11/26 06:37:46;;;;;;;12.23;4.95;;;;;;;;;;7623234;19;20018;-72
2023/11/26 06:40:20;;;;;;;7.32;4.28;;;;;;;;;;7630891;19;20030;-73
2023/11/26 06:42:54;;;;;;;10.98;4.53;;;;;;;;;;7624082;19;20049;-72
2023/11/26 06:45:27;;;;;;;;;;;;;;;;;;7626982;19;20899;-72
2023/11/26 06:48:01;;;;;;;9.10;4.57;;;;;;;;;;7633290;19;20630;-72
2023/11/26 06:50:37;;;;;;;12.57;5.25;;;;;;;;;;7631032;19;20035;-72
2023/11/26 06:53:10;;;;;;;8.93;4.90;;;;;;;;;;7622190;19;20161;-72
2023/11/26 06:55:43;;;;;;;12.57;4.88;;;;;;;;;;7619432;19;20033;-72
2023/11/26 06:58:17;;;;;;;11.57;5.22;;;;;;;;;;7628828;19;20837;-72
2023/11/26 07:00:49;;;;;;;10.53;4.90;;;;;;;;;;7620083;19;20015;-72
2023/11/26 07:03:23;;;;;;;16.40;5.80;;;;;;;;;;7632017;19;21080;-72
2023/11/26 07:05:56;;;;;;;22.05;9.38;;;;;;;;;;7621044;19;20065;-74
2023/11/26 07:08:29;;;;;;;11.60;5.77;;;;;;;;;;7614841;19;20021;-73
2023/11/26 07:11:02;;;;;;;10.63;4.55;;;;;;;;;;7632067;19;21099;-72
2023/11/26 07:13:35;;;;;;;11.33;4.87;;;;;;;;;;7615630;19;21145;-73
2023/11/26 07:16:08;;;;;;;10.48;4.20;;;;;;;;;;7626286;19;20371;-73
2023/11/26 07:18:40;;;;;;;8.40;4.38;;;;;;;;;;7622580;19;20022;-71
2023/11/26 07:21:14;;;;;;;10.85;4.13;;;;;;;;;;7627698;19;20018;-73
2023/11/26 07:23:47;;;;;;;10.13;4.55;;;;;;;;;;7618448;19;20049;-73
2023/11/26 07:26:21;;;;;;;9.60;4.60;;;;;;;;;;7621881;19;20018;-72
2023/11/26 07:28:54;;;;;;;8.20;4.85;;;;;;;;;;7627695;19;20545;-73
2023/11/26 07:31:27;;;;;;;8.43;4.23;;;;;;;;;;7623308;19;20011;-74
2023/11/26 07:34:00;;;;;;;8.50;4.65;;;;;;;;;;7623247;19;20990;-74
2023/11/26 07:36:33;;;;;;;7.40;3.92;;;;;;;;;;7617144;19;20555;-73
2023/11/26 07:39:05;;;;;;;9.93;4.73;;;;;;;;;;7595419;19;20106;-74
2023/11/26 07:41:46;;;;;;;10.75;5.22;;;;;;;;;;7587488;19;20035;-73
2023/11/26 07:44:20;;;;;;;17.92;5.70;;;;;;;;;;7605675;19;20033;-73
2023/11/26 07:46:53;;;;;;;12.23;4.60;;;;;;;;;;7581115;19;20748;-74
2023/11/26 07:49:26;;;;;;;8.57;5.50;;;;;;;;;;7600108;19;20022;-74
2023/11/26 07:51:59;;;;;;;10.88;5.60;;;;;;;;;;7596970;19;20522;-72
2023/11/26 07:54:32;;;;;;;9.23;4.40;;;;;;;;;;7594170;19;20050;-72
2023/11/26 07:57:05;;;;;;;;;;;;;;;;;;7597550;19;20614;-72
2023/11/26 07:59:37;;;;;;;11.68;5.25;;;;;;;;;;7593410;19;19918;-72
2023/11/26 08:02:11;;;;;;;14.37;5.73;;;;;;;;;;7587842;19;20018;-72
2023/11/26 08:04:44;;;;;;;10.95;4.88;;;;;;;;;;7591288;19;20086;-71
2023/11/26 08:07:19;;;;;;;11.60;4.97;;;;;;;;;;7585626;19;20022;-71
2023/11/26 08:09:56;;;;;;;13.55;5.13;;;;;;;;;;7591687;19;20066;-71
2023/11/26 08:12:31;;;;;;;29.75;12.48;;;;;;;;;;7592280;19;20094;-72
2023/11/26 08:15:12;;;;;;;10.05;5.60;;;;;;;;;;7589073;19;20017;-72
2023/11/26 08:17:49;;;;;;;12.80;5.95;;;;;;;;;;7590568;19;21073;-71
2023/11/26 08:20:22;;;;;;;9.52;5.60;;;;;;;;;;7595401;19;20065;-73
2023/11/26 08:22:59;;;;;;;18.20;6.25;;;;;;;;;;7594282;19;20030;-72
2023/11/26 08:25:33;;;;;;;11.55;6.13;;;;;;;;;;7586713;19;20038;-72
2023/11/26 08:28:07;;;;;;;13.77;5.20;;;;;;;;;;7588419;19;20017;-72
2023/11/26 08:30:42;;;;;;;;;;;;;;;;;;7595238;19;20019;-71
2023/11/26 08:33:22;;;;;;;12.13;6.18;;;;;;;;;;7590549;19;19938;-71
2023/11/26 08:35:59;;;;;;;15.52;5.95;;;;;;;;;;7588703;19;20018;-72
2023/11/26 08:38:34;;;;;;;7.22;4.82;;;;;;;;;;7587219;19;20050;-73
2023/11/26 08:41:20;;;;;;;9.18;5.75;;;;;;;;;;7591072;19;20020;-72
2023/11/26 08:43:57;;;;;;;9.77;5.55;;;;;;;;;;7585494;19;21521;-72
2023/11/26 08:46:34;;;;;;;13.13;5.90;;;;;;;;;;7593919;19;20034;-72
2023/11/26 08:49:08;;;;;;;7.10;4.30;;;;;;;;;;7575431;19;20011;-72
2023/11/26 08:51:42;;;;;;;12.50;6.20;;;;;;;;;;7584589;19;20007;-72
2023/11/26 08:54:15;;;;;;;9.65;5.13;;;;;;;;;;7586708;19;20023;-72
2023/11/26 08:56:49;;;;;;;10.15;5.38;;;;;;;;;;7593104;19;20018;-71
2023/11/26 08:59:22;;;;;;;9.18;4.70;;;;;;;;;;7581810;19;20018;-71
2023/11/26 09:01:55;;;;;;;10.52;4.82;;;;;;;;;;7577476;19;20102;-72
2023/11/26 09:04:28;;;;;;;10.82;5.47;;;;;;;;;;7575768;19;20052;-72
2023/11/26 09:07:01;;;;;;;10.13;5.55;;;;;;;;;;7582529;19;20025;-72
2023/11/26 09:09:34;;;;;;;8.67;5.00;;;;;;;;;;7595074;19;20014;-72
2023/11/26 09:12:07;;;;;;;12.70;4.90;;;;;;;;;;7586113;19;20267;-72
2023/11/26 09:14:39;;;;;;;15.95;5.78;;;;;;;;;;7587491;19;20480;-72
2023/11/26 09:17:12;;;;;;;8.70;5.53;;;;;;;;;;7569424;19;20373;-73
2023/11/26 09:19:44;;;;;;;11.60;5.70;;;;;;;;;;7583435;19;20042;-74
2023/11/26 09:22:17;;;;;;;8.90;4.80;;;;;;;;;;7581202;19;21480;-74
2023/11/26 09:24:50;;;;;;;13.02;5.38;;;;;;;;;;7594719;19;20021;-72
2023/11/26 09:27:23;;;;;;;12.98;5.05;;;;;;;;;;7579064;19;20021;-72
2023/11/26 09:29:56;;;;;;;11.18;4.80;;;;;;;;;;7588163;19;21186;-72
2023/11/26 09:32:29;;;;;;;8.27;4.73;;;;;;;;;;7583821;19;20029;-71
2023/11/26 09:35:02;;;;;;;10.47;4.70;;;;;;;;;;7554803;19;20018;-70
2023/11/26 09:37:36;;;;;;;8.02;4.60;;;;;;;;;;7528323;19;20025;-72
2023/11/26 10:21:03;;;;;;;8.70;5.10;;;;;;;;;;7592055;19;20375;-73
2023/11/26 10:23:37;;;;;;;18.77;5.60;;;;;;;;;;7593875;19;20774;-71
2023/11/26 10:26:26;;;;;;;12.95;5.65;;;;;;;;;;7610106;19;20025;-74
2023/11/26 10:29:09;;;;;;;14.52;6.63;;;;;;;;;;7616281;19;20014;-73
2023/11/26 10:32:01;;;;;;;8.27;5.82;;;;;;;;;;7620504;19;20019;-71
2023/11/26 10:34:35;;;;;;;12.55;6.03;;;;;;;;;;7618417;19;20018;-72
2023/11/26 10:37:19;;;;;;;13.43;7.20;;;;;;;;;;7614784;19;20686;-72
2023/11/26 10:39:53;;;;;;;16.00;9.35;;;;;;;;;;7588823;19;20056;-73
2023/11/26 10:42:28;;;;;;;20.02;11.20;;;;;;;;;;7605267;19;20022;-74
2023/11/26 10:45:01;;;;;;;16.83;8.07;;;;;;;;;;7616223;19;20407;-74
2023/11/26 10:47:36;;;;;;;14.18;6.82;;;;;;;;;;7619212;19;20015;-73
2023/11/26 10:50:09;;;;;;;11.40;5.72;;;;;;;;;;7599529;19;20483;-74
2023/11/26 10:52:55;;;;;;;11.18;4.93;;;;;;;;;;7617020;19;20018;-73
2023/11/26 10:55:34;;;;;;;10.23;5.50;;;;;;;;;;7606288;19;20021;-71
2023/11/26 10:58:13;;;;;;;8.45;4.60;;;;;;;;;;7619507;19;20972;-71
2023/11/26 11:00:49;;;;;;;12.32;6.75;;;;;;;;;;7621518;19;20024;-72
2023/11/26 11:03:23;;;;;;;10.40;5.25;;;;;;;;;;7622251;19;20274;-71
2023/11/26 11:05:58;;;;;;;9.30;4.88;;;;;;;;;;7618382;19;20014;-71
2023/11/26 11:08:40;;;;;;;6.97;4.32;;;;;;;;;;7622152;19;20632;-73
2023/11/26 11:11:25;;;;;;;9.50;4.90;;;;;;;;;;7619850;19;20117;-70
2023/11/26 11:13:58;;;;;;;13.15;5.13;;;;;;;;;;7623896;19;20018;-71
2023/11/26 11:16:31;;;;;;;10.10;4.68;;;;;;;;;;7621912;19;20058;-73
2023/11/26 11:19:04;;;;;;;10.70;4.33;;;;;;;;;;7620774;19;20101;-71
2023/11/26 11:21:49;;;;;;;12.97;4.90;;;;;;;;;;7622217;19;20271;-72
2023/11/26 11:24:22;;;;;;;12.32;4.70;;;;;;;;;;7611242;19;20142;-73
2023/11/26 11:26:55;;;;;;;9.50;4.43;;;;;;;;;;7630454;19;20017;-70
2023/11/26 11:29:31;;;;;;;7.72;4.43;;;;;;;;;;7631404;19;20563;-72
2023/11/26 11:32:05;;;;;;;11.27;4.57;;;;;;;;;;7608790;19;20018;-73
2023/11/26 11:34:39;;;;;;;10.23;4.90;;;;;;;;;;7597669;19;20011;-71
2023/11/26 11:37:12;;;;;;;13.63;5.78;;;;;;;;;;7591950;19;20876;-71
2023/11/26 11:39:49;;;;;;;11.57;5.25;;;;;;;;;;7585550;19;20021;-70
2023/11/26 11:42:26;;;;;;;7.60;5.00;;;;;;;;;;7599096;19;20017;-72
2023/11/26 11:45:19;;;;;;;11.43;4.65;;;;;;;;;;7611582;19;20029;-72
2023/11/26 11:47:52;;;;;;;9.23;5.03;;;;;;;;;;7589699;19;20021;-71
2023/11/26 11:50:30;;;;;;;12.68;5.82;;;;;;;;;;7592363;19;20017;-73
2023/11/26 11:53:05;;;;;;;9.30;4.97;;;;;;;;;;7595688;19;20025;-71
2023/11/26 11:55:44;;;;;;;10.35;5.40;;;;;;;;;;7594608;19;20045;-71
2023/11/26 11:58:18;;;;;;;9.57;5.45;;;;;;;;;;7595867;19;20014;-72
2023/11/26 12:00:57;;;;;;;15.02;5.07;;;;;;;;;;7593797;19;20074;-71
2023/11/26 12:03:30;;;;;;;12.95;5.03;;;;;;;;;;7595586;19;20018;-72
2023/11/26 12:06:10;;;;;;;10.10;5.43;;;;;;;;;;7590662;19;20011;-73
2023/11/26 12:08:44;;;;;;;9.68;5.63;;;;;;;;;;7594758;19;20116;-72
2023/11/26 12:11:17;;;;;;;9.35;5.05;;;;;;;;;;7598332;19;20025;-72
2023/11/26 12:13:50;;;;;;;9.13;4.70;;;;;;;;;;7596535;19;20484;-72
2023/11/26 12:16:23;;;;;;;7.60;4.70;;;;;;;;;;7578054;19;20011;-72
2023/11/26 12:18:56;;;;;;;11.07;4.35;;;;;;;;;;7599657;19;20956;-70
2023/11/26 12:21:29;;;;;;;11.55;4.63;;;;;;;;;;7590705;19;20044;-71
2023/11/26 12:24:02;;;;;;;;;;;;;;;;;;7596774;19;20025;-70
2023/11/26 12:26:35;;;;;;;8.63;4.18;;;;;;;;;;7593837;19;19948;-73
2023/11/26 12:29:07;;;;;;;12.43;4.60;;;;;;;;;;7572985;19;20021;-73
2023/11/26 12:31:40;;;;;;;12.25;4.20;;;;;;;;;;7599951;19;20022;-73
2023/11/26 12:34:13;;;;;;;8.88;4.70;;;;;;;;;;7590958;19;20487;-73
2023/11/26 12:36:48;;;;;;;16.40;4.90;;;;;;;;;;7578127;19;20434;-73
2023/11/26 12:39:22;;;;;;;8.85;4.15;;;;;;;;;;7595080;19;20266;-74
2023/11/26 12:41:55;;;;;;;8.32;4.53;;;;;;;;;;7590080;19;20011;-74
2023/11/26 12:44:28;;;;;;;6.93;4.13;;;;;;;;;;7594395;19;20029;-74
2023/11/26 12:47:11;;;;;;;10.07;5.18;;;;;;;;;;7592025;19;20566;-73
2023/11/26 12:49:56;;;;;;;9.55;4.65;;;;;;;;;;7577322;19;20019;-74
2023/11/26 12:52:33;;;;;;;8.38;3.92;;;;;;;;;;7599289;19;20057;-73
2023/11/26 12:55:07;;;;;;;9.52;4.65;;;;;;;;;;7585295;19;20033;-73
2023/11/26 12:57:40;;;;;;;7.35;4.72;;;;;;;;;;7594339;19;20037;-73
2023/11/26 13:00:14;;;;;;;6.00;3.65;;;;;;;;;;7586092;19;20373;-73
2023/11/26 13:03:04;;;;;;;8.18;3.85;;;;;;;;;;7606478;19;20026;-74
2023/11/26 13:05:38;;;;;;;9.70;4.35;;;;;;;;;;7589706;19;20066;-75
2023/11/26 13:08:22;;;;;;;8.50;4.28;;;;;;;;;;7592822;19;20058;-74
2023/11/26 13:10:57;;;;;;;13.10;5.18;;;;;;;;;;7589989;19;20868;-72
2023/11/26 13:13:31;;;;;;;7.28;3.30;;;;;;;;;;7585595;19;20019;-73
2023/11/26 13:16:05;;;;;;;5.93;4.38;;;;;;;;;;7586763;19;20025;-73
2023/11/26 13:18:38;;;;;;;;;;;;;;;;;;7554968;19;20015;-71
2023/11/26 13:21:11;;;;;;;8.18;3.65;;;;;;;;;;7560674;19;19942;-72
2023/11/26 13:23:44;;;;;;;9.00;4.30;;;;;;;;;;7584879;19;20061;-72
2023/11/26 13:26:17;;;;;;;10.15;4.47;;;;;;;;;;7571634;19;20006;-72
2023/11/26 13:28:50;;;;;;;4.25;3.35;;;;;;;;;;7575042;19;20025;-72
2023/11/26 13:31:23;;;;;;;8.25;4.93;;;;;;;;;;7574112;19;19999;-72
2023/11/26 13:33:56;;;;;;;6.30;4.50;;;;;;;;;;7576362;19;20030;-71
2023/11/26 13:36:31;;;;;;;5.23;3.40;;;;;;;;;;7562066;19;20031;-71
2023/11/26 13:39:05;;;;;;;8.73;4.55;;;;;;;;;;7570295;19;20900;-70
2023/11/26 13:41:40;;;;;;;6.72;4.30;;;;;;;;;;7578770;19;20470;-70
2023/11/26 13:44:13;;;;;;;12.05;5.38;;;;;;;;;;7566527;19;20062;-71
2023/11/26 13:46:46;;;;;;;7.25;4.40;;;;;;;;;;7568943;19;20787;-71
2023/11/26 13:49:19;;;;;;;11.27;5.45;;;;;;;;;;7550117;19;20030;-70
2023/11/26 13:51:53;;;;;;;7.78;4.13;;;;;;;;;;7568370;19;20018;-70
2023/11/26 13:54:25;;;;;;;;;;;;;;;;;;7574873;19;20057;-70
2023/11/26 13:56:58;;;;;;;7.75;4.70;;;;;;;;;;7561938;19;19914;-71
2023/11/26 13:59:31;;;;;;;8.70;4.20;;;;;;;;;;7559489;19;20022;-70
2023/11/26 14:02:05;;;;;;;9.85;5.10;;;;;;;;;;7568729;19;21697;-71
2023/11/26 14:04:38;;;;;;;;;;;;;;;;;;7581705;19;20954;-71
2023/11/26 14:07:10;;;;;;;10.65;5.05;;;;;;;;;;7582390;19;19951;-70
2023/11/26 14:09:46;;;;;;;8.20;4.47;;;;;;;;;;7579523;19;20113;-70
2023/11/26 14:12:19;;;;;;;9.63;4.53;;;;;;;;;;7587171;19;21082;-71
2023/11/26 14:14:54;;;;;;;13.48;5.47;;;;;;;;;;7579523;19;20988;-71
2023/11/26 14:17:27;;;;;;;8.77;5.30;;;;;;;;;;7567690;19;20014;-71
2023/11/26 14:20:04;;;;;;;12.63;5.95;;;;;;;;;;7560107;19;20090;-70
2023/11/26 14:22:37;;;;;;;9.70;4.85;;;;;;;;;;7577782;19;20018;-72
2023/11/26 14:25:14;;;;;;;;;;;;;;;;;;7584259;19;21023;-70
2023/11/26 14:27:48;;;;;;;15.82;5.75;;;;;;;;;;7585932;19;19918;-70
2023/11/26 14:30:23;;;;;;;9.48;5.30;;;;;;;;;;7567327;19;20466;-72
2023/11/26 14:32:56;;;;;;;6.95;4.85;;;;;;;;;;7576345;19;20033;-72
2023/11/26 14:35:30;;;;;;;9.07;5.13;;;;;;;;;;7562998;19;20014;-69
2023/11/26 14:38:03;;;;;;;13.18;6.22;;;;;;;;;;7560808;19;20026;-72
2023/11/26 14:40:36;;;;;;;8.13;5.47;;;;;;;;;;7573527;19;20015;-72
2023/11/26 14:43:10;;;;;;;9.52;6.18;;;;;;;;;;7569050;19;20801;-72
2023/11/26 14:45:46;;;;;;;11.50;6.95;;;;;;;;;;7571754;19;20025;-70
2023/11/26 14:48:20;;;;;;;8.25;5.03;;;;;;;;;;7575326;19;20074;-72
2023/11/26 14:50:53;;;;;;;11.88;4.95;;;;;;;;;;7583041;19;20035;-70
2023/11/26 14:53:26;;;;;;;8.93;5.53;;;;;;;;;;7587451;19;20010;-70
2023/11/26 14:55:59;;;;;;;9.18;5.70;;;;;;;;;;7586772;19;20093;-72
2023/11/26 14:58:33;;;;;;;11.68;6.10;;;;;;;;;;7573266;19;20023;-69
2023/11/26 15:01:06;;;;;;;13.32;6.45;;;;;;;;;;7587172;19;20809;-73
2023/11/26 15:03:40;;;;;;;8.50;5.20;;;;;;;;;;7576538;19;20026;-69
2023/11/26 15:06:19;;;;;;;12.95;6.57;;;;;;;;;;7594966;19;20019;-72
2023/11/26 15:08:53;;;;;;;11.07;6.32;;;;;;;;;;7598607;19;20022;-71
2023/11/26 15:11:27;;;;;;;8.80;5.50;;;;;;;;;;7594346;19;20064;-68
2023/11/26 15:14:00;;;;;;;16.73;6.45;;;;;;;;;;7595017;19;20048;-72
2023/11/26 15:16:34;;;;;;;12.20;5.90;;;;;;;;;;7596943;19;20025;-72
2023/11/26 15:19:11;;;;;;;14.98;6.60;;;;;;;;;;7602642;19;20537;-70
2023/11/26 15:21:44;;;;;;;10.73;6.18;;;;;;;;;;7598389;19;20014;-70
2023/11/26 15:24:18;;;;;;;13.43;6.78;;;;;;;;;;7599244;19;20019;-72
2023/11/26 15:26:51;;;;;;;12.40;6.05;;;;;;;;;;7588606;19;20885;-71
2023/11/26 15:29:23;;;;;;;13.50;6.77;;;;;;;;;;7590413;19;21366;-70
2023/11/26 15:31:56;;;;;;;11.15;5.60;;;;;;;;;;7544632;19;20626;-70
2023/11/26 15:34:32;;;;;;;11.93;6.40;;;;;;;;;;7573103;19;20106;-70
2023/11/26 15:37:05;;;;;;;11.20;5.95;;;;;;;;;;7591756;19;20020;-70
2023/11/26 15:39:38;;;;;;;11.65;6.93;;;;;;;;;;7570789;19;20052;-69
2023/11/26 15:42:12;;;;;;;14.07;6.85;;;;;;;;;;7581789;19;20080;-70
2023/11/26 15:44:46;;;;;;;11.85;6.72;;;;;;;;;;7577050;19;20007;-70
2023/11/26 15:47:19;;;;;;;17.75;8.98;;;;;;;;;;7586478;19;20035;-70
2023/11/26 15:49:52;;;;;;;12.30;6.63;;;;;;;;;;7587441;19;20018;-70
2023/11/26 15:52:25;;;;;;;21.53;7.23;;;;;;;;;;7578671;19;20271;-72
2023/11/26 15:54:58;;;;;;;13.32;7.28;;;;;;;;;;7566033;19;20021;-71
2023/11/26 15:57:31;;;;;;;16.20;8.07;;;;;;;;;;7556267;19;20014;-71
2023/11/26 16:00:06;;;;;;;17.58;7.68;;;;;;;;;;7566840;19;20110;-69
2023/11/26 16:02:45;;;;;;;19.90;8.93;;;;;;;;;;7570113;19;20396;-72
2023/11/26 16:05:19;;;;;;;12.48;7.30;;;;;;;;;;7561331;19;20026;-70
2023/11/26 16:07:52;;;;;;;15.20;7.65;;;;;;;;;;7587699;19;20109;-71
2023/11/26 16:10:25;;;;;;;;;;;;;;;;;;7590938;19;24142;-70
2023/11/26 16:12:58;;;;;;;12.30;7.15;;;;;;;;;;7588504;19;20372;-72
2023/11/26 16:15:31;;;;;;;18.00;8.68;;;;;;;;;;7593569;19;20098;-72
2023/11/26 16:18:04;;;;;;;14.73;7.95;;;;;;;;;;7568045;19;20119;-70
2023/11/26 16:20:37;;;;;;;16.45;9.05;;;;;;;;;;7562760;19;20037;-72
2023/11/26 16:23:10;;;;;;;18.88;8.50;;;;;;;;;;7577362;19;20018;-73
2023/11/26 16:25:43;;;;;;;20.08;10.45;;;;;;;;;;7576059;19;20014;-70
2023/11/26 16:28:16;;;;;;;22.02;10.40;;;;;;;;;;7571507;19;20010;-70
2023/11/26 16:30:49;;;;;;;15.18;8.75;;;;;;;;;;7553254;19;21187;-72
2023/11/26 16:33:40;;;;;;;16.73;8.82;;;;;;;;;;7566667;19;20266;-72
2023/11/26 16:36:14;;;;;;;17.92;9.95;;;;;;;;;;7582282;19;20027;-73
2023/11/26 16:38:48;;;;;;;18.92;10.90;;;;;;;;;;7579527;19;21666;-71
2023/11/26 16:41:21;;;;;;;18.92;8.98;;;;;;;;;;7591543;19;20598;-71
2023/11/26 16:43:53;;;;;;;14.10;7.93;;;;;;;;;;7571134;19;20031;-72
2023/11/26 16:46:27;;;;;;;17.52;8.75;;;;;;;;;;7573559;19;20037;-72
2023/11/26 16:49:01;;;;;;;15.45;8.55;;;;;;;;;;7577883;19;20017;-71
2023/11/26 16:51:34;;;;;;;17.25;8.43;;;;;;;;;;7574312;19;20017;-71
2023/11/26 16:54:07;;;;;;;23.55;10.63;;;;;;;;;;7579308;19;20423;-72
2023/11/26 16:56:44;;;;;;;20.08;10.15;;;;;;;;;;7562595;19;20668;-71
2023/11/26 16:59:18;;;;;;;17.60;10.07;;;;;;;;;;7558217;19;20014;-71
2023/11/26 17:01:51;;;;;;;19.38;10.80;;;;;;;;;;7570058;19;20101;-71
2023/11/26 17:04:25;;;;;;;18.67;9.60;;;;;;;;;;7551487;19;20026;-71
2023/11/26 17:06:58;;;;;;;20.45;9.95;;;;;;;;;;7553066;19;20313;-71
2023/11/26 17:09:31;;;;;;;21.98;11.13;;;;;;;;;;7572426;19;20014;-70
2023/11/26 17:12:04;;;;;;;23.23;11.93;;;;;;;;;;7553054;19;20018;-70
2023/11/26 17:16:07;;;;;;;22.47;13.17;;;;;;;;;;7437479;19;3022198;-70
2023/11/26 17:18:40;;;;;;;20.38;11.15;;;;;;;;;;7602978;19;20651;-71
2023/11/26 17:21:13;;;;;;;28.38;13.52;;;;;;;;;;7588478;19;20025;-71
2023/11/26 17:23:46;;;;;;;26.15;13.48;;;;;;;;;;7580422;19;20022;-73
2023/11/26 17:26:24;;;;;;;20.02;11.32;;;;;;;;;;7591393;19;20089;-70
2023/11/26 17:28:57;;;;;;;;;;;;;;;;;;7595620;19;20097;-72
2023/11/26 17:31:30;;;;;;;17.50;9.25;;;;;;;;;;7613020;19;19914;-72
2023/11/26 17:34:06;;;;;;;15.90;9.25;;;;;;;;;;7590313;19;20022;-72
2023/11/26 17:36:43;;;;;;;21.25;8.70;;;;;;;;;;7619995;19;20025;-70
2023/11/26 17:39:16;;;;;;;16.27;9.65;;;;;;;;;;7583202;19;20019;-71
2023/11/26 17:41:49;;;;;;;14.93;9.27;;;;;;;;;;7583155;19;20043;-70
2023/11/26 17:44:23;;;;;;;20.70;9.82;;;;;;;;;;7596853;19;20014;-71
2023/11/26 17:46:57;;;;;;;19.60;8.02;;;;;;;;;;7599699;19;20010;-71
2023/11/26 17:49:30;;;;;;;13.55;8.10;;;;;;;;;;7595217;19;20081;-71
2023/11/26 17:52:03;;;;;;;15.73;9.38;;;;;;;;;;7596905;19;20105;-70
2023/11/26 17:54:36;;;;;;;17.85;8.50;;;;;;;;;;7600861;19;20022;-71
2023/11/26 17:57:11;;;;;;;16.42;7.72;;;;;;;;;;7587734;19;20385;-71
2023/11/26 17:59:44;;;;;;;16.58;9.32;;;;;;;;;;7558497;19;20010;-71
2023/11/26 18:02:17;;;;;;;;;;;;;;;;;;7591331;19;20006;-71
2023/11/26 18:04:51;;;;;;;19.65;9.13;;;;;;;;;;7566302;19;20513;-72
2023/11/26 18:07:24;;;;;;;17.65;9.23;;;;;;;;;;7592088;19;20022;-71
2023/11/26 18:10:00;;;;;;;21.83;10.75;;;;;;;;;;7582416;19;20013;-71
2023/11/26 18:12:35;;;;;;;26.52;9.88;;;;;;;;;;7579092;19;20014;-72
2023/11/26 18:15:12;;;;;;;18.35;11.00;;;;;;;;;;7582413;19;20514;-72
2023/11/26 18:17:45;;;;;;;35.15;15.02;;;;;;;;;;7606533;19;21113;-71
2023/11/26 18:20:18;;;;;;;28.58;12.15;;;;;;;;;;7601269;19;20571;-72
2023/11/26 18:22:51;;;;;;;30.95;14.60;;;;;;;;;;7581706;19;20006;-72
2023/11/26 18:25:24;;;;;;;23.20;12.50;;;;;;;;;;7593746;19;20022;-72
2023/11/26 18:27:58;;;;;;;21.08;11.50;;;;;;;;;;7566235;19;20014;-73
2023/11/26 18:30:32;;;;;;;20.58;11.27;;;;;;;;;;7558710;19;20025;-71
2023/11/26 18:33:04;;;;;;;18.95;10.75;;;;;;;;;;7569207;19;20022;-71
2023/11/26 18:35:38;;;;;;;20.08;12.20;;;;;;;;;;7560914;19;20018;-71
2023/11/26 18:38:11;;;;;;;25.75;12.32;;;;;;;;;;7532663;19;20025;-71
2023/11/26 18:40:45;;;;;;;21.75;12.10;;;;;;;;;;7566496;19;20546;-72
2023/11/26 18:43:17;;;;;;;20.35;12.68;;;;;;;;;;7560752;19;20021;-71
2023/11/26 18:45:53;;;;;;;23.63;13.03;;;;;;;;;;7560922;19;20039;-71
2023/11/26 18:48:25;;;;;;;25.58;13.02;;;;;;;;;;7565953;19;20093;-71
2023/11/26 18:50:58;;;;;;;26.13;13.33;;;;;;;;;;7597093;19;20638;-73
2023/11/26 18:53:31;;;;;;;;;;;;;;;;;;7584202;19;20023;-71
2023/11/26 18:56:04;;;;;;;23.85;12.85;;;;;;;;;;7553523;19;20272;-73
2023/11/26 19:00:20;;;;;;;21.10;12.63;;;;;;;;;;7593819;19;20367;-72
2023/11/26 19:02:53;;;;;;;16.15;9.20;;;;;;;;;;7606254;19;21978;-71
2023/11/26 19:05:26;;;;;;;20.60;12.65;;;;;;;;;;7592986;19;20113;-74
2023/11/26 19:07:59;;;;;;;22.63;11.67;;;;;;;;;;7598448;19;20103;-72
2023/11/26 19:10:32;;;;;;;19.63;11.90;;;;;;;;;;7599140;19;20399;-73
2023/11/26 19:13:08;;;;;;;16.05;8.93;;;;;;;;;;7608705;19;20059;-72
2023/11/26 19:15:41;;;;;;;20.05;10.80;;;;;;;;;;7602024;19;20033;-72
2023/11/26 19:18:14;;;;;;;23.25;11.73;;;;;;;;;;7589839;19;20888;-73
2023/11/26 19:20:47;;;;;;;18.23;10.93;;;;;;;;;;7610417;19;20024;-71
2023/11/26 19:23:20;;;;;;;18.17;10.30;;;;;;;;;;7597205;19;20579;-72
2023/11/26 19:25:53;;;;;;;16.53;8.60;;;;;;;;;;7596576;19;20018;-73
2023/11/26 19:28:28;;;;;;;14.68;9.52;;;;;;;;;;7604584;19;20374;-72
2023/11/26 19:31:01;;;;;;;20.10;9.68;;;;;;;;;;7605701;19;20014;-73
2023/11/26 19:33:35;;;;;;;18.40;9.93;;;;;;;;;;7605757;19;20014;-73
2023/11/26 19:36:08;;;;;;;18.27;10.25;;;;;;;;;;7580137;19;20022;-71
2023/11/26 19:38:40;;;;;;;18.35;10.48;;;;;;;;;;7601074;19;20115;-73
2023/11/26 19:41:14;;;;;;;18.57;10.37;;;;;;;;;;7594843;19;20010;-74
2023/11/26 19:43:47;;;;;;;;;;;;;;;;;;7606564;19;20314;-71
2023/11/26 19:46:20;;;;;;;20.05;11.48;;;;;;;;;;7591727;19;19926;-73
2023/11/26 19:48:53;;;;;;;18.25;9.60;;;;;;;;;;7578288;19;20014;-73
2023/11/26 19:51:29;;;;;;;;;;;;;;;;;;7607377;19;20022;-71
2023/11/26 19:54:03;;;;;;;18.63;10.82;;;;;;;;;;7605712;19;19926;-73
2023/11/26 19:56:35;;;;;;;;;;;;;;;;;;7583361;19;20010;-72
2023/11/26 19:59:09;;;;;;;18.67;10.65;;;;;;;;;;7599930;19;19922;-74
2023/11/26 20:01:42;;;;;;;18.58;11.05;;;;;;;;;;7578339;19;20010;-74
2023/11/26 20:04:15;;;;;;;24.88;13.02;;;;;;;;;;7610479;19;20047;-74
2023/11/26 20:06:47;;;;;;;17.13;9.60;;;;;;;;;;7591699;19;20025;-73
2023/11/26 20:09:20;;;;;;;16.42;10.13;;;;;;;;;;7600711;19;20417;-74
2023/11/26 20:11:54;;;;;;;22.85;10.52;;;;;;;;;;7586310;19;20025;-73
2023/11/26 20:14:26;;;;;;;18.02;10.80;;;;;;;;;;7577608;19;20018;-74
2023/11/26 20:17:01;;;;;;;20.73;10.65;;;;;;;;;;7580078;19;20014;-74
2023/11/26 20:19:34;;;;;;;17.42;10.98;;;;;;;;;;7578996;19;20916;-74
2023/11/26 20:22:07;;;;;;;16.55;9.48;;;;;;;;;;7577488;19;20018;-73
2023/11/26 20:24:40;;;;;;;17.30;8.75;;;;;;;;;;7576328;19;20384;-74
2023/11/26 20:27:13;;;;;;;16.67;8.55;;;;;;;;;;7578008;19;20672;-73
2023/11/26 20:29:46;;;;;;;13.83;7.37;;;;;;;;;;7550117;19;20086;-73
2023/11/26 20:32:20;;;;;;;20.33;10.07;;;;;;;;;;7542028;19;21435;-72
2023/11/26 20:34:53;;;;;;;16.27;9.30;;;;;;;;;;7574622;19;22753;-72
2023/11/26 20:37:26;;;;;;;18.42;11.00;;;;;;;;;;7561100;19;20047;-72
2023/11/26 20:39:59;;;;;;;19.08;11.40;;;;;;;;;;7571468;19;20018;-72
2023/11/26 20:42:32;;;;;;;13.18;7.90;;;;;;;;;;7595780;19;20093;-72
2023/11/26 20:45:05;;;;;;;15.30;9.20;;;;;;;;;;7573744;19;20014;-71
2023/11/26 20:47:38;;;;;;;17.48;9.10;;;;;;;;;;7581633;19;20061;-72
2023/11/26 20:50:13;;;;;;;15.93;8.27;;;;;;;;;;7574827;19;20925;-72
